Time;durP1;ratioP1;P1;durP2;ratioP2;P2;SDS_P1;SDS_P2;PMS_P1;PMS_P2;Temp;Humidity;BMP_temperature;BMP_pressure;BME280_temperature;BME280_humidity;BME280_pressure;Samples;Min_cycle;Max_cycle;Signal;HPM_P1;HPM_P2
2021/08/01 00:01:06;;;;;;;5.20;1.52;;;;;;;14.72;57.66;100702.97;5036599;28;20139;-70
2021/08/01 00:03:32;;;;;;;3.70;1.10;;;;;;;14.71;57.48;100697.81;5039223;28;20509;-70
2021/08/01 00:05:57;;;;;;;8.60;1.85;;;;;;;14.54;57.45;100689.16;5036832;28;20075;-70
2021/08/01 00:08:26;;;;;;;3.38;1.65;;;;;;;14.47;57.57;100684.31;5038412;28;20388;-70
2021/08/01 00:10:56;;;;;;;5.60;2.05;;;;;;;14.51;57.70;100699.00;5041975;28;20386;-70
2021/08/01 00:13:21;;;;;;;3.80;1.95;;;;;;;14.60;57.57;100694.97;5033473;28;20080;-72
2021/08/01 00:15:47;;;;;;;5.47;1.90;;;;;;;14.72;56.99;100689.81;5021565;28;20438;-70
2021/08/01 00:18:13;;;;;;;6.10;2.22;;;;;;;14.53;57.00;100700.59;5040403;28;20021;-69
2021/08/01 00:20:38;;;;;;;5.88;1.85;;;;;;;14.61;57.06;100697.50;5017690;28;20091;-70
2021/08/01 00:23:04;;;;;;;5.15;1.63;;;;;;;14.46;56.78;100688.75;5041930;28;20486;-70
2021/08/01 00:25:29;;;;;;;3.92;2.03;;;;;;;14.34;57.52;100695.56;5032997;28;20092;-70
2021/08/01 00:27:55;;;;;;;7.30;2.13;;;;;;;14.48;57.30;100689.50;5034718;28;20502;-70
2021/08/01 00:30:20;;;;;;;4.13;2.00;;;;;;;14.50;57.25;100684.13;5031720;28;20034;-70
2021/08/01 00:32:48;;;;;;;9.18;2.38;;;;;;;14.51;57.58;100686.69;5035326;28;20111;-70
2021/08/01 00:35:13;;;;;;;11.05;2.38;;;;;;;14.50;57.73;100686.75;5037470;28;20030;-70
2021/08/01 00:37:39;;;;;;;8.07;2.00;;;;;;;14.41;57.54;100679.44;5034296;28;20375;-70
2021/08/01 00:40:06;;;;;;;5.30;1.60;;;;;;;14.58;57.13;100676.63;5034126;28;20529;-71
2021/08/01 00:42:32;;;;;;;3.90;1.90;;;;;;;14.69;56.88;100679.47;5034017;28;20033;-69
2021/08/01 00:44:57;;;;;;;6.47;1.98;;;;;;;14.62;57.08;100682.56;5017006;28;20067;-69
2021/08/01 00:47:22;;;;;;;6.00;2.13;;;;;;;14.71;56.95;100682.00;5033970;28;20464;-70
2021/08/01 00:49:49;;;;;;;5.38;1.58;;;;;;;14.45;57.60;100683.56;5033568;28;20092;-70
2021/08/01 00:52:17;;;;;;;7.15;3.17;;;;;;;14.62;57.30;100680.78;5032840;28;20029;-70
2021/08/01 00:54:42;;;;;;;5.30;2.13;;;;;;;14.17;58.30;100676.44;5034606;28;20091;-69
2021/08/01 00:57:09;;;;;;;5.45;2.30;;;;;;;14.32;58.38;100665.00;5034219;28;20120;-70
2021/08/01 00:59:38;;;;;;;12.77;2.45;;;;;;;14.51;57.53;100680.59;5021120;28;20092;-70
2021/08/01 01:02:16;;;;;;;4.95;2.22;;;;;;;14.24;57.89;100668.09;5033548;28;20116;-70
2021/08/01 01:04:48;;;;;;;7.82;2.08;;;;;;;14.52;56.90;100663.84;5024757;28;20096;-71
2021/08/01 01:07:22;;;;;;;7.85;2.22;;;;;;;14.47;56.74;100664.13;5038144;28;20458;-70
2021/08/01 01:10:01;;;;;;;7.78;2.60;;;;;;;14.40;56.78;100661.94;5027766;28;20033;-70
2021/08/01 01:12:45;;;;;;;6.20;2.28;;;;;;;14.58;56.39;100666.13;5033546;28;20057;-70
2021/08/01 01:15:22;;;;;;;8.27;3.10;;;;;;;14.54;56.41;100664.59;5026693;28;20037;-70
2021/08/01 01:17:53;;;;;;;12.05;2.60;;;;;;;14.31;57.48;100664.16;5034794;28;20028;-71
2021/08/01 01:20:35;;;;;;;12.30;3.42;;;;;;;14.36;57.22;100656.84;5040642;28;20065;-71
2021/08/01 01:23:01;;;;;;;7.55;2.13;;;;;;;14.31;57.79;100653.66;5037748;28;20025;-70
2021/08/01 01:26:01;;;;;;;6.95;2.72;;;;;;;14.46;57.21;100659.81;5039073;28;20056;-70
2021/08/01 01:28:44;;;;;;;15.40;3.65;;;;;;;14.38;57.27;100666.44;5039841;28;20082;-70
2021/08/01 01:31:23;;;;;;;7.70;2.60;;;;;;;14.41;57.26;100655.75;5036963;28;20029;-70
2021/08/01 01:34:10;;;;;;;14.38;3.20;;;;;;;14.33;57.41;100662.28;5028771;28;20029;-71
2021/08/01 01:36:39;;;;;;;9.02;3.22;;;;;;;14.59;57.07;100665.19;5040795;28;20031;-70
2021/08/01 01:39:06;;;;;;;9.57;3.17;;;;;;;14.41;57.35;100666.28;5036197;28;20774;-70
2021/08/01 01:42:01;;;;;;;12.13;3.47;;;;;;;14.41;57.28;100668.91;5038048;28;20040;-70
2021/08/01 01:44:46;;;;;;;10.68;3.65;;;;;;;14.53;56.43;100669.03;5024579;28;20033;-70
2021/08/01 01:47:14;;;;;;;5.75;3.30;;;;;;;14.26;57.34;100671.50;5023057;28;20124;-70
2021/08/01 01:49:42;;;;;;;9.65;3.05;;;;;;;14.10;57.94;100665.44;5037022;28;20033;-71
2021/08/01 01:52:14;;;;;;;8.85;3.22;;;;;;;14.17;57.41;100677.28;5026297;28;20083;-70
2021/08/01 01:54:44;;;;;;;13.73;3.42;;;;;;;14.27;57.52;100670.53;5024298;28;20037;-70
2021/08/01 01:57:12;;;;;;;8.95;3.42;;;;;;;14.11;57.79;100667.13;5041190;28;20025;-70
2021/08/01 01:59:39;;;;;;;11.02;3.78;;;;;;;14.00;58.29;100674.78;5021897;28;20029;-70
2021/08/01 02:02:08;;;;;;;7.85;2.80;;;;;;;14.23;57.63;100676.94;5043630;28;20033;-70
2021/08/01 02:04:34;;;;;;;9.90;3.58;;;;;;;14.24;57.50;100675.16;5037348;28;20029;-71
2021/08/01 02:07:20;;;;;;;8.55;3.28;;;;;;;14.22;57.86;100675.22;5039125;28;20052;-71
2021/08/01 02:10:01;;;;;;;8.57;3.75;;;;;;;14.09;58.00;100667.19;5039425;28;20120;-70
2021/08/01 02:12:50;;;;;;;10.07;3.67;;;;;;;14.15;57.88;100668.66;5044829;28;20039;-71
2021/08/01 02:15:34;;;;;;;11.23;4.55;;;;;;;14.43;57.20;100664.41;5055741;28;20048;-70
2021/08/01 02:18:06;;;;;;;7.37;4.17;;;;;;;13.89;58.61;100659.63;5024110;28;20036;-70
2021/08/01 02:20:40;;;;;;;10.00;4.00;;;;;;;13.97;58.69;100659.22;5037936;28;20029;-70
2021/08/01 02:23:18;;;;;;;10.65;4.20;;;;;;;14.24;58.01;100664.63;5038463;28;20068;-70
2021/08/01 02:25:46;;;;;;;10.15;4.22;;;;;;;14.28;57.89;100660.91;5029966;28;20120;-71
2021/08/01 02:28:12;;;;;;;10.15;4.13;;;;;;;14.27;58.36;100665.28;5039085;28;20044;-70
2021/08/01 02:30:39;;;;;;;12.82;4.65;;;;;;;14.38;57.92;100658.56;5037438;28;20045;-71
2021/08/01 02:33:06;;;;;;;11.93;4.47;;;;;;;14.59;57.41;100657.31;5041253;28;20601;-70
2021/08/01 02:35:33;;;;;;;10.63;3.70;;;;;;;14.58;57.63;100658.22;5035448;28;20075;-71
2021/08/01 02:38:01;;;;;;;12.93;4.72;;;;;;;14.63;57.07;100653.53;5034896;28;20525;-70
2021/08/01 02:40:45;;;;;;;7.95;4.13;;;;;;;14.39;57.76;100655.84;5036820;28;20041;-71
2021/08/01 02:43:16;;;;;;;11.73;4.47;;;;;;;14.58;57.46;100652.97;5017326;28;20111;-70
2021/08/01 02:45:44;;;;;;;8.43;4.18;;;;;;;14.30;58.07;100640.59;5033317;28;20053;-70
2021/08/01 02:48:12;;;;;;;9.02;4.03;;;;;;;14.47;57.70;100647.50;5038455;28;20267;-70
2021/08/01 02:50:39;;;;;;;15.98;4.28;;;;;;;14.32;57.77;100647.47;5039410;28;20055;-70
2021/08/01 02:53:11;;;;;;;8.68;3.53;;;;;;;14.27;57.47;100651.31;5038751;28;20279;-71
2021/08/01 02:55:42;;;;;;;6.93;3.63;;;;;;;14.43;57.60;100660.00;5040056;28;20032;-70
2021/08/01 02:58:09;;;;;;;13.30;3.90;;;;;;;14.50;57.22;100658.72;5040947;28;20035;-70
2021/08/01 03:00:47;;;;;;;9.23;3.67;;;;;;;14.61;57.00;100660.66;5043274;28;20039;-70
2021/08/01 03:03:17;;;;;;;11.98;3.97;;;;;;;14.48;57.25;100662.38;5019121;28;20029;-70
2021/08/01 03:05:44;;;;;;;14.50;3.97;;;;;;;14.31;57.76;100658.91;5038359;28;20048;-69
2021/08/01 03:08:13;;;;;;;11.82;3.90;;;;;;;14.53;57.46;100660.31;5035039;28;20029;-70
2021/08/01 03:10:46;;;;;;;9.20;3.53;;;;;;;14.53;57.07;100670.81;5035330;28;20035;-70
2021/08/01 03:13:12;;;;;;;9.20;4.25;;;;;;;14.35;57.65;100664.84;5037996;28;20038;-69
2021/08/01 03:15:39;;;;;;;18.00;3.72;;;;;;;14.37;57.67;100662.97;5037637;28;20026;-70
2021/08/01 03:18:07;;;;;;;7.13;2.90;;;;;;;14.54;57.32;100664.59;5043450;28;20021;-70
2021/08/01 03:20:34;;;;;;;6.35;3.28;;;;;;;13.42;60.01;100653.47;5038255;28;20482;-69
2021/08/01 03:23:34;;;;;;;6.00;3.53;;;;;;;14.00;58.67;100659.03;5039201;28;20033;-70
2021/08/01 03:26:17;;;;;;;7.95;3.50;;;;;;;14.05;58.58;100662.22;5036523;28;20535;-69
2021/08/01 03:28:46;;;;;;;11.15;3.53;;;;;;;14.18;57.80;100665.81;5029540;28;20128;-70
2021/08/01 03:31:11;;;;;;;8.48;3.47;;;;;;;14.07;58.21;100657.72;5023914;28;20119;-70
2021/08/01 03:33:43;;;;;;;5.82;2.65;;;;;;;13.71;59.44;100662.38;5022264;28;20029;-70
2021/08/01 03:36:08;;;;;;;8.13;3.17;;;;;;;14.14;58.35;100667.81;5038829;28;20037;-70
2021/08/01 03:38:52;;;;;;;9.43;3.20;;;;;;;14.00;58.46;100664.28;5036986;28;20072;-69
2021/08/01 03:41:36;;;;;;;11.20;3.25;;;;;;;13.78;59.32;100657.63;5035716;28;20042;-70
2021/08/01 03:44:04;;;;;;;9.25;4.10;;;;;;;13.81;59.54;100660.09;5035789;28;20782;-69
2021/08/01 03:46:29;;;;;;;9.68;3.17;;;;;;;13.90;59.24;100658.72;5024115;28;20032;-69
2021/08/01 03:48:55;;;;;;;9.13;3.45;;;;;;;14.00;58.88;100667.75;5027131;28;20041;-70
2021/08/01 03:51:20;;;;;;;10.50;3.20;;;;;;;13.77;59.25;100663.81;5036927;28;20031;-69
2021/08/01 03:53:46;;;;;;;8.23;4.00;;;;;;;13.74;59.72;100658.72;5034502;28;20506;-69
2021/08/01 03:56:11;;;;;;;10.02;3.13;;;;;;;13.59;59.92;100662.25;5045383;28;20060;-70
2021/08/01 03:58:37;;;;;;;8.35;3.45;;;;;;;13.28;60.97;100669.16;5023307;28;20104;-70
2021/08/01 04:01:02;;;;;;;5.57;3.10;;;;;;;13.55;60.04;100669.41;5035672;28;20044;-69
2021/08/01 04:03:28;;;;;;;6.78;3.65;;;;;;;13.44;60.53;100677.03;5036412;28;20622;-69
2021/08/01 04:05:54;;;;;;;6.97;2.55;;;;;;;13.67;59.94;100681.00;5035180;28;20037;-70
2021/08/01 04:08:19;;;;;;;5.55;2.47;;;;;;;13.89;59.22;100675.41;5035115;28;20033;-70
2021/08/01 04:10:45;;;;;;;5.47;2.72;;;;;;;13.69;59.68;100687.03;5039370;28;20400;-69
2021/08/01 04:13:10;;;;;;;5.10;2.95;;;;;;;14.01;58.75;100685.22;5027836;28;20025;-69
2021/08/01 04:15:36;;;;;;;4.88;2.35;;;;;;;13.82;59.17;100682.78;5038784;28;20395;-69
2021/08/01 04:18:03;;;;;;;4.40;2.25;;;;;;;14.06;58.38;100696.31;5039733;28;20029;-70
2021/08/01 04:20:29;;;;;;;6.90;3.00;;;;;;;14.13;58.38;100692.38;5038577;28;20036;-70
2021/08/01 04:22:55;;;;;;;4.22;1.80;;;;;;;14.18;58.27;100689.47;5038767;28;20029;-69
2021/08/01 04:25:21;;;;;;;3.17;1.95;;;;;;;14.29;58.14;100686.22;5037145;28;20405;-69
2021/08/01 04:27:47;;;;;;;7.43;2.50;;;;;;;14.40;57.73;100685.59;5038753;28;20242;-69
2021/08/01 04:30:13;;;;;;;7.13;2.53;;;;;;;14.20;57.93;100692.88;5025545;28;20036;-69
2021/08/01 04:32:38;;;;;;;3.60;2.05;;;;;;;14.31;57.89;100687.81;5041682;28;20398;-70
2021/08/01 04:35:05;;;;;;;6.38;2.35;;;;;;;14.31;58.02;100684.38;5034559;28;20056;-69
2021/08/01 04:37:31;;;;;;;3.95;2.28;;;;;;;14.19;58.46;100688.56;5039820;28;20036;-69
2021/08/01 04:39:56;;;;;;;5.53;2.40;;;;;;;14.08;58.41;100683.09;5032715;28;20041;-70
2021/08/01 04:42:22;;;;;;;5.32;2.72;;;;;;;13.75;59.60;100689.31;5037706;28;20029;-70
2021/08/01 04:44:47;;;;;;;5.85;2.83;;;;;;;13.98;59.29;100682.75;5037526;28;20052;-70
2021/08/01 04:47:14;;;;;;;7.93;3.40;;;;;;;14.08;58.71;100688.34;5038050;28;20025;-69
2021/08/01 04:49:40;;;;;;;9.98;3.63;;;;;;;14.12;58.60;100692.47;5031371;28;20032;-70
2021/08/01 04:52:06;;;;;;;12.00;3.97;;;;;;;14.00;58.92;100687.94;5039745;28;20028;-70
2021/08/01 04:54:36;;;;;;;11.40;3.92;;;;;;;13.87;59.59;100693.03;5036845;28;20029;-70
2021/08/01 04:57:05;;;;;;;7.40;3.95;;;;;;;14.16;58.70;100704.50;5037423;28;20024;-70
2021/08/01 04:59:34;;;;;;;5.75;3.20;;;;;;;14.26;58.41;100697.78;5042001;28;20024;-70
2021/08/01 05:02:00;;;;;;;10.00;3.42;;;;;;;14.36;58.08;100705.97;5037142;28;20445;-70
2021/08/01 05:04:26;;;;;;;8.88;3.47;;;;;;;14.27;58.35;100709.97;5037070;28;20383;-70
2021/08/01 05:06:51;;;;;;;8.45;3.58;;;;;;;14.29;57.87;100708.09;5037607;28;20040;-70
2021/08/01 05:09:17;;;;;;;8.52;3.25;;;;;;;14.33;58.30;100707.00;5039240;28;20029;-70
2021/08/01 05:11:42;;;;;;;9.48;3.40;;;;;;;13.97;59.19;100703.88;5035951;28;20017;-69
2021/08/01 05:14:08;;;;;;;9.30;3.60;;;;;;;14.18;58.80;100710.50;5039045;28;20536;-69
2021/08/01 05:16:33;;;;;;;8.23;4.07;;;;;;;13.90;59.65;100706.84;5039357;28;20068;-70
2021/08/01 05:18:59;;;;;;;6.82;3.65;;;;;;;14.26;58.53;100708.28;5025597;28;20124;-70
2021/08/01 05:21:24;;;;;;;5.40;3.63;;;;;;;14.10;58.63;100707.50;5033620;28;20112;-70
2021/08/01 05:23:50;;;;;;;9.63;3.75;;;;;;;14.21;58.82;100714.72;5037169;28;20056;-70
2021/08/01 05:26:16;;;;;;;9.27;4.18;;;;;;;14.43;58.35;100706.47;5038801;28;20033;-70
2021/08/01 05:28:42;;;;;;;6.97;3.63;;;;;;;14.16;58.43;100709.75;5041819;28;20033;-69
2021/08/01 05:31:08;;;;;;;8.38;4.13;;;;;;;14.22;58.27;100701.50;5039294;28;20075;-70
2021/08/01 05:33:33;;;;;;;8.43;3.80;;;;;;;14.10;58.72;100703.09;5038800;28;20108;-70
2021/08/01 05:36:05;;;;;;;8.82;3.53;;;;;;;14.49;58.22;100692.97;5041826;28;20087;-70
2021/08/01 05:38:30;;;;;;;7.60;2.95;;;;;;;14.36;58.20;100688.41;5034768;28;20048;-69
2021/08/01 05:40:56;;;;;;;9.93;3.28;;;;;;;14.58;57.86;100691.59;5041397;28;20067;-69
2021/08/01 05:43:21;;;;;;;7.63;3.20;;;;;;;14.04;59.17;100692.06;5036680;28;20033;-70
2021/08/01 05:45:47;;;;;;;4.78;2.80;;;;;;;14.21;58.59;100694.56;5038071;28;20032;-70
2021/08/01 05:48:12;;;;;;;5.95;3.20;;;;;;;14.44;57.94;100695.03;5034313;28;20041;-71
2021/08/01 05:50:37;;;;;;;5.32;2.40;;;;;;;14.71;58.01;100692.53;5024316;28;20037;-70
2021/08/01 05:53:03;;;;;;;6.10;3.08;;;;;;;14.84;57.04;100703.19;5035271;28;20037;-70
2021/08/01 05:55:28;;;;;;;8.98;2.80;;;;;;;14.67;57.53;100698.91;5036320;28;20033;-70
2021/08/01 05:57:54;;;;;;;7.15;3.30;;;;;;;14.59;57.63;100699.38;5035127;28;20021;-70
2021/08/01 06:00:19;;;;;;;5.18;2.92;;;;;;;14.22;58.91;100709.41;5038456;28;20823;-70
2021/08/01 06:02:45;;;;;;;8.02;2.55;;;;;;;14.41;58.11;100700.47;5037968;28;20037;-70
2021/08/01 06:05:10;;;;;;;5.65;2.92;;;;;;;14.32;58.05;100701.81;5038240;28;20526;-70
2021/08/01 06:07:36;;;;;;;5.32;3.17;;;;;;;13.68;59.95;100703.75;5042159;28;20653;-69
2021/08/01 06:10:01;;;;;;;6.15;2.78;;;;;;;14.36;58.30;100698.91;5042126;28;20037;-69
2021/08/01 06:12:27;;;;;;;5.97;3.55;;;;;;;14.21;58.81;100698.97;5025999;28;20025;-70
2021/08/01 06:14:54;;;;;;;6.85;2.75;;;;;;;14.67;57.78;100702.38;5037995;28;20673;-70
2021/08/01 06:17:20;;;;;;;8.77;3.72;;;;;;;14.61;57.63;100702.75;5046608;28;20391;-69
2021/08/01 06:19:45;;;;;;;8.15;3.17;;;;;;;14.43;57.43;100709.09;5037976;28;20029;-69
2021/08/01 06:22:14;;;;;;;6.00;3.00;;;;;;;14.26;58.29;100713.56;5045583;28;20072;-70
2021/08/01 06:24:39;;;;;;;8.02;3.15;;;;;;;14.26;58.15;100708.28;5043828;28;20555;-70
2021/08/01 06:27:05;;;;;;;6.22;2.10;;;;;;;14.28;58.12;100718.72;5043935;28;20029;-69
2021/08/01 06:29:31;;;;;;;6.32;3.70;;;;;;;14.13;58.36;100707.31;5036701;28;20037;-70
2021/08/01 06:31:56;;;;;;;3.63;2.65;;;;;;;14.36;58.15;100713.84;5039885;28;20039;-69
2021/08/01 06:34:23;;;;;;;9.95;3.63;;;;;;;14.43;57.80;100711.72;5035023;28;20119;-70
2021/08/01 06:36:49;;;;;;;6.10;2.47;;;;;;;14.55;57.89;100703.13;5037459;28;20056;-70
2021/08/01 06:39:15;;;;;;;8.45;3.75;;;;;;;14.34;58.03;100710.47;5040642;28;20025;-69
2021/08/01 06:41:40;;;;;;;9.60;3.60;;;;;;;14.14;58.48;100698.47;5043251;28;20032;-70
2021/08/01 06:44:06;;;;;;;12.75;3.83;;;;;;;14.49;58.22;100706.13;5040010;28;20036;-70
2021/08/01 06:46:31;;;;;;;10.80;4.85;;;;;;;14.84;57.92;100701.38;5038748;28;20025;-69
2021/08/01 06:48:57;;;;;;;9.18;3.70;;;;;;;15.27;57.36;100705.81;5027267;28;20099;-71
2021/08/01 06:51:22;;;;;;;8.13;2.83;;;;;;;15.44;56.15;100705.59;5037845;28;20068;-70
2021/08/01 06:53:48;;;;;;;5.70;2.63;;;;;;;15.36;55.70;100711.34;5019968;28;20113;-70
2021/08/01 06:56:13;;;;;;;5.55;3.30;;;;;;;15.22;56.45;100710.53;5042444;28;20155;-70
2021/08/01 06:58:39;;;;;;;6.63;2.95;;;;;;;15.34;56.18;100712.38;5040832;28;20021;-70
2021/08/01 07:01:04;;;;;;;14.82;3.08;;;;;;;15.31;55.57;100713.44;5029203;28;20067;-70
2021/08/01 07:03:29;;;;;;;11.77;4.55;;;;;;;15.00;56.68;100706.56;5038274;28;20060;-69
2021/08/01 07:05:56;;;;;;;8.93;2.72;;;;;;;14.95;56.31;100701.56;5041564;28;20025;-69
2021/08/01 07:08:21;;;;;;;6.00;2.00;;;;;;;15.00;55.41;100696.03;5021848;28;20060;-69
2021/08/01 07:10:47;;;;;;;4.45;1.92;;;;;;;14.80;55.89;100704.28;5039130;28;20091;-70
2021/08/01 07:13:13;;;;;;;4.75;1.60;;;;;;;14.71;55.62;100714.44;5042421;28;20593;-70
2021/08/01 07:15:38;;;;;;;4.00;2.50;;;;;;;14.58;56.06;100712.63;5038288;28;20469;-70
2021/08/01 07:18:04;;;;;;;4.85;2.60;;;;;;;14.40;56.49;100706.63;5033268;28;20044;-70
2021/08/01 07:20:31;;;;;;;4.10;1.67;;;;;;;14.28;56.72;100708.22;5033070;28;20382;-70
2021/08/01 07:22:57;;;;;;;6.88;2.50;;;;;;;14.63;56.69;100708.75;5042799;28;20506;-69
2021/08/01 07:25:24;;;;;;;3.30;2.50;;;;;;;14.60;56.30;100716.84;5042455;28;20029;-69
2021/08/01 07:27:50;;;;;;;3.85;1.70;;;;;;;14.27;57.05;100709.97;5036827;28;20040;-70
2021/08/01 07:30:16;;;;;;;5.03;1.95;;;;;;;13.65;58.58;100714.41;5040041;28;20041;-69
2021/08/01 07:32:41;;;;;;;4.15;2.17;;;;;;;13.83;58.21;100718.63;5040264;28;20029;-70
2021/08/01 07:35:07;;;;;;;4.63;2.40;;;;;;;14.19;57.25;100712.22;5039354;28;20029;-70
2021/08/01 07:37:33;;;;;;;3.65;1.92;;;;;;;14.31;57.74;100711.50;5043070;28;20547;-69
2021/08/01 07:39:58;;;;;;;5.38;2.88;;;;;;;14.58;57.40;100712.63;5039157;28;20556;-70
2021/08/01 07:42:24;;;;;;;3.60;1.63;;;;;;;14.76;57.12;100714.97;5042892;28;20029;-70
2021/08/01 07:44:52;;;;;;;5.30;1.58;;;;;;;14.92;56.78;100716.69;5039910;28;20026;-69
2021/08/01 07:47:20;;;;;;;2.78;1.20;;;;;;;15.07;55.59;100707.03;5039821;28;20044;-69
2021/08/01 07:49:48;;;;;;;5.68;1.35;;;;;;;15.61;55.16;100712.41;5041083;28;20025;-70
2021/08/01 07:52:14;;;;;;;2.42;1.25;;;;;;;15.79;54.66;100715.66;5036230;28;20491;-70
2021/08/01 07:54:40;;;;;;;5.38;1.70;;;;;;;16.15;53.31;100719.50;5041015;28;20044;-70
2021/08/01 07:57:06;;;;;;;2.40;1.30;;;;;;;16.42;53.21;100717.69;5021566;28;20033;-69
2021/08/01 07:59:32;;;;;;;3.05;1.15;;;;;;;15.60;53.77;100710.75;5036353;28;20622;-69
2021/08/01 08:01:57;;;;;;;3.83;1.55;;;;;;;16.47;53.39;100713.91;5033529;28;20029;-69
2021/08/01 08:04:23;;;;;;;4.93;1.50;;;;;;;16.96;52.45;100708.75;5042613;28;20029;-69
2021/08/01 08:06:51;;;;;;;4.07;1.35;;;;;;;17.88;50.65;100709.25;5040024;28;20040;-69
2021/08/01 08:09:16;;;;;;;3.55;1.38;;;;;;;19.96;43.76;100701.94;5038027;28;20028;-69
2021/08/01 08:11:41;;;;;;;4.25;1.00;;;;;;;22.62;39.91;100697.19;5037422;28;20029;-70
2021/08/01 08:14:07;;;;;;;2.65;0.95;;;;;;;23.21;37.43;100687.16;5041214;28;20504;-70
2021/08/01 08:16:33;;;;;;;2.55;1.38;;;;;;;22.42;37.60;100691.06;5036343;28;20112;-69
2021/08/01 08:18:59;;;;;;;4.75;0.95;;;;;;;21.68;39.04;100697.81;5035836;28;20037;-69
2021/08/01 08:21:26;;;;;;;4.35;1.02;;;;;;;20.99;40.66;100695.94;5035987;28;20034;-70
2021/08/01 08:23:53;;;;;;;4.78;1.40;;;;;;;19.68;43.03;100698.94;5031468;28;20406;-69
2021/08/01 08:26:19;;;;;;;2.45;0.90;;;;;;;19.74;43.21;100696.72;5034826;28;20069;-70
2021/08/01 08:28:44;;;;;;;3.95;1.10;;;;;;;19.25;44.22;100691.75;5032225;28;20057;-70
2021/08/01 08:31:10;;;;;;;4.10;1.00;;;;;;;19.39;44.65;100692.44;5032317;28;20035;-69
2021/08/01 08:33:35;;;;;;;6.60;1.20;;;;;;;19.32;44.19;100693.91;5037525;28;20662;-70
2021/08/01 08:36:01;;;;;;;3.78;1.52;;;;;;;19.09;43.30;100704.53;5041128;28;20092;-69
2021/08/01 08:38:26;;;;;;;3.17;0.80;;;;;;;18.62;43.70;100699.28;5039668;28;20037;-70
2021/08/01 08:40:52;;;;;;;4.78;1.20;;;;;;;18.21;46.14;100710.41;5039542;28;20113;-69
2021/08/01 08:43:18;;;;;;;2.83;1.02;;;;;;;17.72;47.41;100703.44;5038053;28;20124;-69
2021/08/01 08:45:44;;;;;;;5.35;1.42;;;;;;;16.81;48.57;100702.72;5025667;28;20044;-70
2021/08/01 08:48:12;;;;;;;3.42;1.30;;;;;;;16.32;50.51;100710.47;5031032;28;20064;-69
2021/08/01 08:50:38;;;;;;;6.97;1.67;;;;;;;16.23;51.07;100706.66;5022234;28;20042;-69
2021/08/01 08:53:06;;;;;;;2.95;1.35;;;;;;;16.02;51.66;100694.88;5034047;28;20041;-70
2021/08/01 08:55:35;;;;;;;2.67;1.23;;;;;;;15.88;52.24;100699.25;5034191;28;20037;-69
2021/08/01 08:58:06;;;;;;;5.80;1.17;;;;;;;15.88;52.92;100696.59;5036414;28;21369;-69
2021/08/01 09:00:33;;;;;;;3.40;1.63;;;;;;;15.82;52.90;100706.69;5036156;28;20033;-69
2021/08/01 09:02:59;;;;;;;6.47;1.42;;;;;;;15.94;53.60;100711.19;5021178;28;20044;-69
2021/08/01 09:05:26;;;;;;;3.92;1.77;;;;;;;16.00;52.79;100710.84;5019832;28;20025;-69
2021/08/01 09:07:52;;;;;;;5.00;1.40;;;;;;;15.93;53.04;100718.25;5039843;28;20559;-69
2021/08/01 09:10:17;;;;;;;4.15;1.50;;;;;;;15.71;52.62;100710.06;5033440;28;20041;-70
2021/08/01 09:12:49;;;;;;;2.97;0.95;;;;;;;15.18;54.23;100717.72;5035377;28;20037;-70
2021/08/01 09:15:21;;;;;;;7.55;1.48;;;;;;;15.51;54.03;100709.53;5036584;28;20029;-69
2021/08/01 09:17:47;;;;;;;3.33;0.95;;;;;;;15.46;54.30;100713.38;5034528;28;21022;-70
2021/08/01 09:20:27;;;;;;;1.15;0.65;;;;;;;15.82;53.56;100709.34;5037868;28;20041;-69
2021/08/01 09:22:58;;;;;;;1.90;0.30;;;;;;;16.59;52.98;100713.03;5040720;28;20037;-69
2021/08/01 09:25:27;;;;;;;0.40;0.20;;;;;;;16.94;51.67;100717.72;5033410;28;20093;-70
2021/08/01 09:28:15;;;;;;;0.90;0.25;;;;;;;17.17;50.85;100719.59;5044147;28;20037;-69
2021/08/01 09:30:42;;;;;;;5.32;0.30;;;;;;;16.84;51.21;100720.16;5042959;28;20029;-69
2021/08/01 09:33:08;;;;;;;0.30;0.10;;;;;;;16.19;51.29;100721.84;5037147;28;20044;-70
2021/08/01 09:35:33;;;;;;;1.45;0.20;;;;;;;16.00;53.20;100722.22;5045457;28;20021;-69
2021/08/01 09:37:59;;;;;;;2.08;0.10;;;;;;;15.85;53.11;100733.72;5020462;28;20047;-69
2021/08/01 09:40:30;;;;;;;0.52;0.10;;;;;;;15.92;53.16;100735.00;5040682;28;20041;-70
2021/08/01 09:43:12;;;;;;;1.13;0.10;;;;;;;15.57;52.77;100726.72;5042911;28;20396;-70
2021/08/01 09:45:38;;;;;;;1.83;0.28;;;;;;;15.34;53.68;100733.44;5044386;28;20029;-69
2021/08/01 09:48:33;;;;;;;2.30;0.22;;;;;;;15.11;53.39;100740.94;5039420;28;20034;-69
2021/08/01 09:51:04;;;;;;;1.35;0.13;;;;;;;14.96;54.16;100740.09;5028245;28;20053;-69
2021/08/01 09:53:31;;;;;;;2.55;0.22;;;;;;;14.96;54.66;100734.00;5039182;28;20033;-70
2021/08/01 09:56:10;;;;;;;0.30;0.20;;;;;;;14.85;54.04;100736.44;5036651;28;20033;-70
2021/08/01 09:58:36;;;;;;;2.88;0.38;;;;;;;14.89;55.15;100737.94;5039550;28;20036;-70
2021/08/01 10:01:03;;;;;;;2.05;0.75;;;;;;;14.87;55.18;100734.56;5042548;28;20151;-70
2021/08/01 10:03:41;;;;;;;1.00;0.40;;;;;;;14.97;55.02;100733.06;5041672;28;20024;-70
2021/08/01 10:06:08;;;;;;;0.80;0.30;;;;;;;15.01;54.93;100726.66;5028758;28;20438;-69
2021/08/01 10:08:36;;;;;;;1.35;0.30;;;;;;;14.96;55.16;100724.31;5043283;28;20036;-70
2021/08/01 10:11:16;;;;;;;0.70;0.20;;;;;;;15.06;54.19;100719.34;5029306;28;20025;-70
2021/08/01 10:13:43;;;;;;;2.92;0.70;;;;;;;15.22;54.47;100716.63;5042337;28;20038;-70
2021/08/01 10:16:10;;;;;;;3.80;0.20;;;;;;;14.93;54.32;100713.13;5036767;28;20040;-69
2021/08/01 10:18:37;;;;;;;3.10;0.40;;;;;;;15.69;53.04;100714.56;5043407;28;20395;-69
2021/08/01 10:21:03;;;;;;;2.58;0.82;;;;;;;16.21;51.85;100724.38;5043952;28;20036;-69
2021/08/01 10:23:34;;;;;;;6.15;0.30;;;;;;;17.22;49.07;100708.69;5041714;28;20032;-69
2021/08/01 10:26:01;;;;;;;2.45;0.30;;;;;;;17.85;49.31;100702.41;5039735;28;20033;-70
2021/08/01 10:28:27;;;;;;;1.40;0.38;;;;;;;18.28;45.94;100703.69;5037881;28;20037;-70
2021/08/01 10:30:57;;;;;;;2.95;0.40;;;;;;;18.68;46.26;100705.94;5037869;28;20036;-71
2021/08/01 10:33:25;;;;;;;2.97;0.30;;;;;;;19.35;44.47;100706.94;5041754;28;20040;-70
2021/08/01 10:36:00;;;;;;;1.42;0.30;;;;;;;19.96;43.18;100709.06;5044131;28;20028;-70
2021/08/01 10:38:25;;;;;;;5.95;0.32;;;;;;;20.04;42.41;100709.28;5040003;28;20025;-70
2021/08/01 10:40:58;;;;;;;5.10;0.35;;;;;;;20.18;41.83;100710.78;5039406;28;20059;-70
2021/08/01 10:43:30;;;;;;;3.33;0.43;;;;;;;20.05;41.57;100711.78;5040572;28;20037;-71
2021/08/01 10:45:57;;;;;;;5.03;0.52;;;;;;;19.91;41.45;100714.75;5044042;28;20040;-71
2021/08/01 10:48:26;;;;;;;1.00;0.32;;;;;;;20.58;39.77;100712.78;5025539;28;20159;-70
2021/08/01 10:50:53;;;;;;;3.90;0.45;;;;;;;20.39;38.39;100714.31;5042050;28;20028;-70
2021/08/01 10:53:19;;;;;;;2.78;0.55;;;;;;;20.71;40.54;100713.41;5039149;28;20060;-70
2021/08/01 10:55:48;;;;;;;2.78;0.25;;;;;;;20.97;39.28;100724.44;5035641;28;20033;-69
2021/08/01 10:58:15;;;;;;;7.13;0.30;;;;;;;21.62;37.19;100719.63;5039459;28;20108;-69
2021/08/01 11:01:02;;;;;;;0.80;0.22;;;;;;;20.98;39.27;100720.00;5043028;28;20021;-70
2021/08/01 11:03:30;;;;;;;1.10;0.10;;;;;;;20.83;38.30;100714.97;5037208;28;20040;-69
2021/08/01 11:05:56;;;;;;;0.85;0.20;;;;;;;19.84;39.04;100709.13;5041616;28;20590;-69
2021/08/01 11:08:22;;;;;;;1.58;0.40;;;;;;;20.05;40.11;100714.44;5042994;28;20029;-70
2021/08/01 11:11:12;;;;;;;1.10;0.20;;;;;;;19.64;41.01;100718.69;5023462;28;21048;-70
2021/08/01 11:13:46;;;;;;;3.05;0.20;;;;;;;20.51;39.81;100718.59;5037681;28;20413;-70
2021/08/01 11:16:14;;;;;;;2.05;0.15;;;;;;;20.50;39.25;100722.19;5039324;28;20044;-70
2021/08/01 11:18:42;;;;;;;3.08;0.20;;;;;;;20.76;37.67;100711.19;5036658;28;20105;-70
2021/08/01 11:21:10;;;;;;;3.85;0.70;;;;;;;20.81;38.46;100713.44;5038934;28;20033;-71
2021/08/01 11:23:55;;;;;;;0.75;0.35;;;;;;;20.91;40.80;100720.50;5040854;28;20371;-70
2021/08/01 11:26:21;;;;;;;3.78;0.68;;;;;;;21.40;38.56;100711.84;5013812;28;20052;-69
2021/08/01 11:29:10;;;;;;;1.35;0.10;;;;;;;21.74;37.68;100713.22;5041454;28;20021;-69
2021/08/01 11:31:37;;;;;;;2.45;0.30;;;;;;;21.41;36.64;100717.03;5035807;28;20037;-70